Terminal Aerodrome Forecast
Issued by NWS

Home | Current Version | Previous Version | Text Only | Print | Product List | Glossary On
Versions: 1 2 3 4 5 6 7 8 9 10 11 12 13 14 15 16 17 18 19 20 21 22 23 24 25 26 27 28 29 30 31 32 33
000
FTUS41 KPBZ 151722
TAFAGC
TAF
KAGC 151722Z 1518/1618 24010KT P6SM BKN100
     FM152200 24009KT P6SM VCSH BKN060
     FM160100 25012G20KT P6SM VCSH BKN030
     FM160800 25009KT P6SM VCSH BKN030
     FM161500 24009KT P6SM VCSH BKN070=

USA.gov is the U.S. government's official web portal to all federal, state and local government web resources and services.